createdAt,value
2022-08-05T00:02:07.757Z,86.99
2022-08-05T00:04:41.333Z,86.89
2022-08-05T00:07:27.353Z,87.31
2022-08-05T00:10:02.868Z,87.88
2022-08-05T00:12:32.912Z,88.26
2022-08-05T00:15:56.348Z,88.42
2022-08-05T00:17:52.975Z,88.36
2022-08-05T00:20:22.890Z,88.44
2022-08-05T00:23:02.594Z,88.06
2022-08-05T00:25:45.963Z,88.38
2022-08-05T00:28:16.903Z,89.23
2022-08-05T00:31:04.546Z,89.43
2022-08-05T00:34:53.257Z,88.89
2022-08-05T00:37:12.847Z,88.85
2022-08-05T00:39:16.182Z,89.21
2022-08-05T00:41:55.172Z,89.95
2022-08-05T00:44:30.802Z,90.24
2022-08-05T00:47:04.041Z,88.99
2022-08-05T00:49:44.789Z,89.23
2022-08-05T00:52:28.603Z,89.42
2022-08-05T00:55:00.395Z,89.22
2022-08-05T00:57:38.312Z,89.19
2022-08-05T01:00:21.926Z,89.63
2022-08-05T01:02:52.029Z,90.06
2022-08-05T01:05:23.556Z,90.08
2022-08-05T01:08:40.804Z,90.01
2022-08-05T01:10:51.580Z,90.68
2022-08-05T01:13:57.391Z,91.06
2022-08-05T01:16:52.978Z,91.51
2022-08-05T01:19:56.303Z,93.61
2022-08-05T01:22:45.318Z,92.87
2022-08-05T01:25:39.649Z,93.48
2022-08-05T01:28:17.084Z,90.99
2022-08-05T01:31:21.451Z,94.18
2022-08-05T01:34:10.849Z,94.96
2022-08-05T01:36:56.332Z,95.08
2022-08-05T01:39:46.573Z,95.73
2022-08-05T01:42:22.235Z,95.31
2022-08-05T01:44:54.738Z,96.82
2022-08-05T01:47:39.298Z,96.92
2022-08-05T01:50:17.516Z,96.83
2022-08-05T01:52:50.402Z,97.77
2022-08-05T01:55:23.843Z,97.55
2022-08-05T01:58:11.070Z,96.77
2022-08-05T02:00:48.743Z,96.78
2022-08-05T02:03:40.281Z,95.22
2022-08-05T02:06:24.031Z,96.52
2022-08-05T02:09:02.235Z,97.45
2022-08-05T02:11:48.101Z,97.30
2022-08-05T02:14:32.299Z,97.64
2022-08-05T02:17:16.989Z,97.84
2022-08-05T02:20:07.515Z,98.34
2022-08-05T02:22:50.381Z,98.64
2022-08-05T02:25:26.960Z,98.46
2022-08-05T02:28:08.659Z,98.57
2022-08-05T02:30:51.793Z,98.66
2022-08-05T02:33:36.013Z,98.35
2022-08-05T02:36:13.574Z,98.64
2022-08-05T02:38:53.396Z,98.44
2022-08-05T02:41:28.329Z,98.71
2022-08-05T02:44:12.152Z,98.94
2022-08-05T02:46:59.889Z,99.03
2022-08-05T02:49:40.675Z,98.68
2022-08-05T02:52:30.233Z,98.67
2022-08-05T02:55:05.171Z,98.83
2022-08-05T02:58:10.567Z,99.10
2022-08-05T03:00:31.447Z,98.39
2022-08-05T03:03:03.278Z,98.71
2022-08-05T03:06:55.961Z,98.46
2022-08-05T03:08:32.446Z,98.22
2022-08-05T03:11:54.363Z,97.63
2022-08-05T03:14:03.099Z,98.09
2022-08-05T03:16:33.773Z,98.47
2022-08-05T03:19:17.239Z,98.08
2022-08-05T03:21:57.128Z,98.20
2022-08-05T03:24:29.831Z,97.84
2022-08-05T03:27:01.515Z,98.50
2022-08-05T03:29:45.120Z,98.14
2022-08-05T03:32:22.463Z,98.22
2022-08-05T03:35:01.818Z,97.82
2022-08-05T03:37:46.315Z,98.57
2022-08-05T03:40:31.303Z,98.83
2022-08-05T03:43:59.131Z,98.08
2022-08-05T03:45:58.823Z,97.85
2022-08-05T03:48:30.105Z,98.68
2022-08-05T03:52:36.629Z,98.27
2022-08-05T03:55:52.037Z,98.33
2022-08-05T03:57:41.288Z,98.17
2022-08-05T04:00:07.837Z,98.11
2022-08-05T04:02:57.568Z,97.73
2022-08-05T04:05:34.944Z,98.16
2022-08-05T04:08:14.750Z,98.23
2022-08-05T04:11:00.599Z,98.40
2022-08-05T04:13:50.213Z,98.14
2022-08-05T04:16:24.969Z,97.28
2022-08-05T04:19:00.376Z,97.95
2022-08-05T04:22:10.322Z,98.00
2022-08-05T04:24:22.298Z,98.51
2022-08-05T04:26:53.829Z,98.42
2022-08-05T04:29:25.148Z,98.39
2022-08-05T04:31:57.410Z,98.19
2022-08-05T04:34:32.671Z,97.90
2022-08-05T04:37:04.985Z,98.12
2022-08-05T04:39:36.102Z,98.05
2022-08-05T04:42:06.820Z,98.57
2022-08-05T04:44:36.669Z,98.58
2022-08-05T04:47:09.789Z,98.32
2022-08-05T04:50:02.748Z,98.76
2022-08-05T04:52:33.347Z,98.77
2022-08-05T04:55:13.868Z,98.54
2022-08-05T04:57:51.661Z,98.73
2022-08-05T05:00:24.560Z,98.52
2022-08-05T05:02:53.886Z,96.66
2022-08-05T05:05:28.289Z,98.16
2022-08-05T05:08:05.328Z,98.52
2022-08-05T05:10:56.303Z,98.83
2022-08-05T05:13:26.741Z,98.66
2022-08-05T05:16:07.006Z,98.06
2022-08-05T05:18:37.271Z,98.19
2022-08-05T05:21:06.722Z,95.68
2022-08-05T05:24:02.493Z,98.29
2022-08-05T05:26:28.737Z,98.30
2022-08-05T05:29:14.160Z,98.30
2022-08-05T05:31:46.164Z,98.45
2022-08-05T05:34:21.201Z,98.86
2022-08-05T05:36:57.009Z,99.05
2022-08-05T05:39:26.308Z,97.84
2022-08-05T05:42:04.706Z,99.02
2022-08-05T05:44:37.675Z,99.31
2022-08-05T05:47:30.317Z,99.19
2022-08-05T05:50:04.333Z,99.50
2022-08-05T05:52:37.989Z,99.35
2022-08-05T05:55:13.888Z,99.29
2022-08-05T05:57:52.385Z,99.38
2022-08-05T06:00:31.482Z,99.55
2022-08-05T06:03:40.799Z,99.60
2022-08-05T06:05:55.724Z,99.36
2022-08-05T06:08:32.328Z,99.81
2022-08-05T06:11:04.117Z,99.65
2022-08-05T06:13:40.787Z,99.53
2022-08-05T06:16:28.742Z,99.62
2022-08-05T06:19:05.960Z,99.63
2022-08-05T06:21:42.260Z,99.38
2022-08-05T06:24:25.791Z,99.41
2022-08-05T06:26:57.427Z,99.12
2022-08-05T06:29:49.287Z,97.57
2022-08-05T06:32:26.111Z,99.27
2022-08-05T06:34:59.920Z,98.62
2022-08-05T06:37:56.273Z,99.21
2022-08-05T06:40:27.705Z,98.44
2022-08-05T06:42:58.072Z,98.66
2022-08-05T06:45:44.634Z,97.14
2022-08-05T06:48:54.534Z,97.77
2022-08-05T06:51:09.453Z,98.03
2022-08-05T06:53:40.957Z,98.51
2022-08-05T06:56:26.471Z,98.28
2022-08-05T06:58:57.402Z,98.46
2022-08-05T07:01:32.225Z,98.88
2022-08-05T07:04:03.189Z,97.20
2022-08-05T07:06:33.017Z,98.65
2022-08-05T07:09:05.333Z,98.58
2022-08-05T07:11:40.001Z,98.34
2022-08-05T07:14:30.363Z,98.10
2022-08-05T07:18:00.226Z,98.44
2022-08-05T07:20:31.388Z,98.39
2022-08-05T07:22:45.801Z,98.09
2022-08-05T07:25:54.392Z,98.27
2022-08-05T07:28:11.797Z,98.82
2022-08-05T07:30:50.461Z,98.59
2022-08-05T07:33:37.184Z,98.74
2022-08-05T07:36:20.397Z,98.35
2022-08-05T07:38:54.690Z,98.68
2022-08-05T07:42:08.922Z,98.69
2022-08-05T07:44:19.084Z,98.31
2022-08-05T07:46:50.619Z,98.65
2022-08-05T07:49:21.677Z,98.34
2022-08-05T07:51:54.194Z,98.62
2022-08-05T07:54:30.773Z,98.98
2022-08-05T07:57:22.389Z,98.91
2022-08-05T07:59:54.699Z,98.91
2022-08-05T08:02:31.459Z,99.06
2022-08-05T08:05:18.606Z,98.87
2022-08-05T08:07:59.686Z,99.16
2022-08-05T08:10:30.842Z,99.25
2022-08-05T08:13:00.734Z,99.14
2022-08-05T08:15:37.238Z,98.86
2022-08-05T08:18:22.217Z,98.83
2022-08-05T08:21:02.289Z,98.45
2022-08-05T08:24:02.013Z,98.76
2022-08-05T08:26:29.418Z,98.58
2022-08-05T08:29:22.029Z,98.67
2022-08-05T08:31:52.160Z,98.06
2022-08-05T08:34:30.228Z,98.20
2022-08-05T08:37:03.382Z,98.33
2022-08-05T08:39:37.572Z,98.54
2022-08-05T08:42:27.566Z,98.11
2022-08-05T08:45:18.162Z,98.81
2022-08-05T08:48:07.750Z,98.21
2022-08-05T08:51:03.994Z,98.32
2022-08-05T08:53:40.282Z,98.31
2022-08-05T08:56:16.745Z,98.49
2022-08-05T08:58:49.602Z,98.37
2022-08-05T09:01:21.808Z,98.31
2022-08-05T09:03:57.211Z,98.48
2022-08-05T09:06:30.386Z,98.22
2022-08-05T09:09:02.196Z,98.54
2022-08-05T09:11:52.477Z,98.06
2022-08-05T09:14:57.811Z,98.05
2022-08-05T09:17:42.442Z,98.04
2022-08-05T09:20:08.351Z,97.97
2022-08-05T09:23:07.711Z,98.04
2022-08-05T09:26:02.468Z,98.57
2022-08-05T09:28:36.265Z,98.51
2022-08-05T09:31:22.707Z,98.73
2022-08-05T09:33:59.898Z,98.85
2022-08-05T09:36:55.129Z,97.91
2022-08-05T09:39:41.897Z,98.18
2022-08-05T09:42:24.323Z,98.88
2022-08-05T09:45:17.430Z,98.98
2022-08-05T09:47:57.575Z,98.58
2022-08-05T09:50:44.668Z,98.46
2022-08-05T09:53:26.069Z,98.15
2022-08-05T09:56:13.071Z,98.28
2022-08-05T09:58:43.503Z,98.55
2022-08-05T10:01:31.569Z,98.35
2022-08-05T10:04:10.622Z,98.57
2022-08-05T10:06:59.367Z,97.76
2022-08-05T10:09:30.267Z,98.06
2022-08-05T10:12:31.697Z,98.51
2022-08-05T10:15:21.985Z,98.22
2022-08-05T10:18:21.006Z,98.22
2022-08-05T10:21:15.747Z,98.39
2022-08-05T10:23:58.995Z,97.79
2022-08-05T10:26:32.619Z,98.32
2022-08-05T10:29:04.636Z,98.28
2022-08-05T10:33:01.707Z,97.73
2022-08-05T10:34:30.021Z,98.18
2022-08-05T10:37:01.803Z,97.93
2022-08-05T10:40:04.263Z,97.51
2022-08-05T10:42:34.214Z,97.85
2022-08-05T10:45:21.257Z,97.82
2022-08-05T10:48:30.201Z,97.59
2022-08-05T10:51:21.759Z,97.45
2022-08-05T10:53:52.836Z,96.82
2022-08-05T10:56:26.279Z,96.64
2022-08-05T10:58:56.397Z,96.44
2022-08-05T11:01:54.560Z,96.15
2022-08-05T11:04:31.717Z,96.35
2022-08-05T11:07:05.991Z,96.00
2022-08-05T11:09:46.444Z,95.83
2022-08-05T11:12:41.312Z,95.88
2022-08-05T11:15:20.155Z,95.71
2022-08-05T11:17:59.813Z,94.80
2022-08-05T11:20:44.622Z,94.99
2022-08-05T11:24:04.923Z,94.90
2022-08-05T11:26:27.998Z,94.49
2022-08-05T11:29:13.466Z,94.74
2022-08-05T11:31:53.895Z,94.00
2022-08-05T11:34:50.858Z,93.88
2022-08-05T11:38:26.781Z,94.67
2022-08-05T11:41:01.314Z,94.06
2022-08-05T11:44:05.094Z,93.78
2022-08-05T11:47:09.853Z,93.95
2022-08-05T11:49:29.081Z,92.10
2022-08-05T11:52:11.502Z,92.36
2022-08-05T11:54:43.618Z,91.32
2022-08-05T11:58:07.922Z,91.09
2022-08-05T12:00:30.882Z,90.13
2022-08-05T12:03:28.843Z,90.87
2022-08-05T12:06:09.813Z,90.57
2022-08-05T12:08:49.787Z,90.91
2022-08-05T12:11:28.341Z,90.43
2022-08-05T12:14:11.399Z,90.86
2022-08-05T12:16:45.284Z,90.48
2022-08-05T12:20:25.469Z,89.53
2022-08-05T12:22:09.490Z,89.62
2022-08-05T12:24:51.739Z,89.74
2022-08-05T12:27:32.924Z,91.35
2022-08-05T12:30:06.685Z,88.89
2022-08-05T12:32:45.808Z,89.01
2022-08-05T12:35:21.612Z,89.21
2022-08-05T12:37:53.293Z,87.73
2022-08-05T12:40:29.925Z,88.11
2022-08-05T12:43:00.652Z,88.19
2022-08-05T12:45:42.594Z,87.39
2022-08-05T12:48:27.758Z,83.58
2022-08-05T12:52:10.625Z,77.05
2022-08-05T12:54:16.475Z,81.16
2022-08-05T12:57:00.251Z,83.85
2022-08-05T12:59:46.689Z,84.66
2022-08-05T13:02:30.657Z,84.82
2022-08-05T13:05:00.865Z,86.14
2022-08-05T13:07:57.731Z,83.46
2022-08-05T13:10:21.837Z,84.19
2022-08-05T13:12:58.507Z,83.65
2022-08-05T13:15:50.248Z,84.46
2022-08-05T13:18:21.489Z,85.65
2022-08-05T13:20:54.044Z,77.79
2022-08-05T13:23:23.744Z,77.79
2022-08-05T13:25:59.150Z,75.83
2022-08-05T13:28:32.318Z,68.08
2022-08-05T13:31:03.364Z,69.04
2022-08-05T13:34:24.470Z,67.78
2022-08-05T13:36:35.441Z,70.88
2022-08-05T13:39:08.487Z,73.80
2022-08-05T13:41:54.465Z,73.61
2022-08-05T13:44:26.347Z,70.94
2022-08-05T13:47:02.408Z,74.03
2022-08-05T13:49:38.481Z,75.03
2022-08-05T13:52:29.351Z,76.48
2022-08-05T13:55:01.230Z,80.06
2022-08-05T13:57:49.075Z,78.32
2022-08-05T14:00:27.241Z,77.82
2022-08-05T14:03:01.035Z,77.58
2022-08-05T14:06:04.578Z,76.46
2022-08-05T14:08:27.889Z,75.61
2022-08-05T14:11:03.272Z,74.84
2022-08-05T14:13:48.486Z,74.34
2022-08-05T14:16:25.150Z,72.43
2022-08-05T14:18:54.906Z,72.25
2022-08-05T14:22:09.901Z,70.00
2022-08-05T14:24:19.399Z,74.64
2022-08-05T14:27:08.476Z,71.31
2022-08-05T14:29:39.663Z,71.71
2022-08-05T14:32:15.926Z,69.83
2022-08-05T14:34:57.727Z,69.01
2022-08-05T14:37:48.102Z,64.87
2022-08-05T14:40:17.572Z,70.29
2022-08-05T14:42:47.352Z,67.26
2022-08-05T14:45:19.173Z,70.37
2022-08-05T14:48:05.750Z,66.41
2022-08-05T14:50:40.763Z,59.05
2022-08-05T14:53:11.278Z,60.05
2022-08-05T14:55:41.093Z,59.44
2022-08-05T14:58:13.969Z,64.82
2022-08-05T15:00:58.238Z,64.80
2022-08-05T15:03:33.537Z,66.47
2022-08-05T15:06:12.869Z,65.94
2022-08-05T15:08:58.353Z,58.76
2022-08-05T15:11:50.930Z,63.72
2022-08-05T15:14:34.789Z,59.74
2022-08-05T15:17:44.470Z,58.22
2022-08-05T15:20:02.354Z,58.08
2022-08-05T15:22:33.343Z,58.94
2022-08-05T15:25:11.865Z,61.70
2022-08-05T15:27:52.133Z,64.16
2022-08-05T15:30:22.754Z,63.68
2022-08-05T15:32:52.767Z,65.10
2022-08-05T15:35:22.602Z,68.48
2022-08-05T15:38:32.393Z,64.92
2022-08-05T15:41:04.359Z,66.40
2022-08-05T15:43:45.932Z,67.27
2022-08-05T15:46:18.132Z,65.50
2022-08-05T15:48:54.732Z,65.11
2022-08-05T15:52:10.017Z,62.77
2022-08-05T15:54:21.941Z,59.82
2022-08-05T15:57:07.643Z,58.48
2022-08-05T15:59:38.487Z,56.22
2022-08-05T16:02:14.909Z,54.94
2022-08-05T16:04:50.688Z,59.86
2022-08-05T16:07:22.958Z,57.07
2022-08-05T16:09:54.092Z,60.20
2022-08-05T16:12:24.534Z,61.21
2022-08-05T16:14:54.485Z,66.91
2022-08-05T16:17:24.249Z,63.57
2022-08-05T16:20:10.955Z,56.31
2022-08-05T16:22:41.792Z,54.37
2022-08-05T16:25:11.700Z,54.74
2022-08-05T16:27:47.110Z,58.80
2022-08-05T16:30:32.790Z,55.45
2022-08-05T16:33:04.177Z,59.71
2022-08-05T16:35:41.972Z,59.39
2022-08-05T16:38:24.654Z,58.62
2022-08-05T16:41:00.068Z,59.17
2022-08-05T16:43:33.653Z,64.16
2022-08-05T16:46:23.710Z,63.22
2022-08-05T16:48:55.686Z,65.41
2022-08-05T16:51:30.751Z,63.73
2022-08-05T16:54:17.099Z,65.30
2022-08-05T16:56:52.180Z,64.14
2022-08-05T16:59:22.367Z,52.77
2022-08-05T17:01:56.459Z,52.47
2022-08-05T17:04:28.123Z,47.20
2022-08-05T17:07:03.238Z,52.41
2022-08-05T17:09:57.495Z,54.92
2022-08-05T17:12:50.445Z,57.31
2022-08-05T17:15:19.888Z,60.75
2022-08-05T17:18:02.069Z,63.14
2022-08-05T17:20:32.497Z,62.37
2022-08-05T17:23:02.265Z,60.93
2022-08-05T17:25:33.897Z,65.16
2022-08-05T17:28:10.489Z,60.55
2022-08-05T17:30:51.913Z,53.61
2022-08-05T17:33:23.146Z,45.79
2022-08-05T17:36:07.485Z,45.54
2022-08-05T17:38:40.486Z,45.71
2022-08-05T17:41:11.587Z,43.50
2022-08-05T17:44:01.154Z,43.16
2022-08-05T17:46:33.518Z,43.23
2022-08-05T17:49:03.601Z,44.35
2022-08-05T17:51:40.602Z,43.68
2022-08-05T17:54:11.212Z,42.23
2022-08-05T17:56:44.695Z,41.61
2022-08-05T17:59:21.019Z,40.67
2022-08-05T18:01:52.862Z,52.24
2022-08-05T18:04:27.217Z,40.84
2022-08-05T18:07:01.132Z,45.41
2022-08-05T18:09:58.818Z,39.56
2022-08-05T18:12:24.280Z,43.75
2022-08-05T18:14:54.799Z,49.99
2022-08-05T18:18:00.523Z,39.16
2022-08-05T18:20:15.493Z,51.17
2022-08-05T18:22:54.515Z,56.01
2022-08-05T18:25:25.337Z,45.02
2022-08-05T18:28:05.210Z,43.12
2022-08-05T18:30:36.536Z,39.95
2022-08-05T18:33:13.638Z,37.21
2022-08-05T18:36:00.960Z,39.17
2022-08-05T18:38:37.266Z,35.89
2022-08-05T18:41:55.811Z,36.75
2022-08-05T18:44:05.603Z,37.51
2022-08-05T18:46:37.897Z,39.10
2022-08-05T18:49:30.472Z,45.52
2022-08-05T18:52:33.489Z,57.36
2022-08-05T18:55:10.308Z,61.41
2022-08-05T18:57:50.146Z,61.40
2022-08-05T19:00:29.207Z,47.60
2022-08-05T19:03:03.303Z,41.88
2022-08-05T19:06:12.910Z,39.61
2022-08-05T19:08:30.741Z,38.78
2022-08-05T19:11:04.551Z,40.04
2022-08-05T19:13:36.695Z,38.61
2022-08-05T19:16:25.197Z,42.22
2022-08-05T19:18:59.126Z,47.71
2022-08-05T19:21:34.155Z,52.84
2022-08-05T19:24:12.613Z,58.08
2022-08-05T19:26:54.314Z,61.26
2022-08-05T19:29:36.050Z,63.10
2022-08-05T19:32:11.486Z,61.97
2022-08-05T19:34:42.057Z,63.13
2022-08-05T19:37:35.057Z,60.30
2022-08-05T19:40:16.662Z,61.30
2022-08-05T19:43:04.659Z,61.85
2022-08-05T19:45:36.737Z,61.04
2022-08-05T19:48:07.557Z,63.76
2022-08-05T19:50:45.855Z,62.60
2022-08-05T19:53:15.594Z,65.68
2022-08-05T19:56:14.237Z,63.03
2022-08-05T19:58:53.412Z,67.29
2022-08-05T20:01:28.438Z,64.56
2022-08-05T20:03:58.651Z,65.65
2022-08-05T20:06:29.590Z,69.63
2022-08-05T20:09:06.296Z,65.38
2022-08-05T20:11:48.298Z,68.72
2022-08-05T20:14:27.159Z,66.77
2022-08-05T20:17:01.721Z,67.50
2022-08-05T20:19:35.934Z,69.52
2022-08-05T20:22:06.717Z,67.48
2022-08-05T20:24:39.736Z,67.74
2022-08-05T20:27:11.138Z,69.60
2022-08-05T20:29:41.701Z,69.23
2022-08-05T20:32:23.050Z,71.12
2022-08-05T20:34:53.173Z,71.88
2022-08-05T20:38:04.919Z,69.75
2022-08-05T20:40:13.106Z,73.78
2022-08-05T20:42:43.591Z,72.81
2022-08-05T20:45:13.604Z,73.03
2022-08-05T20:47:43.325Z,76.93
2022-08-05T20:50:13.566Z,77.52
2022-08-05T20:52:45.922Z,77.16
2022-08-05T20:55:56.550Z,76.53
2022-08-05T20:58:06.561Z,74.62
2022-08-05T21:00:44.434Z,76.79
2022-08-05T21:03:24.269Z,79.44
2022-08-05T21:05:55.718Z,80.13
2022-08-05T21:08:42.486Z,81.78
2022-08-05T21:12:07.019Z,82.30
2022-08-05T21:14:05.207Z,81.99
2022-08-05T21:16:35.416Z,82.78
2022-08-05T21:19:05.979Z,82.84
2022-08-05T21:21:43.909Z,83.16
2022-08-05T21:24:20.737Z,83.55
2022-08-05T21:26:58.437Z,83.83
2022-08-05T21:29:31.865Z,83.65
2022-08-05T21:32:03.980Z,85.46
2022-08-05T21:34:35.412Z,83.65
2022-08-05T21:37:06.121Z,84.79
2022-08-05T21:39:40.327Z,85.57
2022-08-05T21:42:40.907Z,86.64
2022-08-05T21:45:02.145Z,87.57
2022-08-05T21:47:55.774Z,87.71
2022-08-05T21:50:22.265Z,87.94
2022-08-05T21:52:52.089Z,88.75
2022-08-05T21:55:42.958Z,89.34
2022-08-05T21:58:13.685Z,89.98
2022-08-05T22:00:51.022Z,90.98
2022-08-05T22:03:52.102Z,91.04
2022-08-05T22:06:11.607Z,91.07
2022-08-05T22:08:42.761Z,89.03
2022-08-05T22:11:15.720Z,91.36
2022-08-05T22:14:19.421Z,91.00
2022-08-05T22:16:51.841Z,90.61
2022-08-05T22:20:00.918Z,90.86
2022-08-05T22:22:27.186Z,91.31
2022-08-05T22:26:10.403Z,91.73
2022-08-05T22:28:19.400Z,91.63
2022-08-05T22:30:57.240Z,91.06
2022-08-05T22:33:56.669Z,91.82
2022-08-05T22:36:24.098Z,92.00
2022-08-05T22:38:54.578Z,92.10
2022-08-05T22:42:04.199Z,92.52
2022-08-05T22:44:15.081Z,92.97
2022-08-05T22:46:49.250Z,93.31
2022-08-05T22:50:17.234Z,93.17
2022-08-05T22:52:13.771Z,93.15
2022-08-05T22:54:51.190Z,93.64
2022-08-05T22:57:21.577Z,93.36
2022-08-05T22:59:54.058Z,93.56
2022-08-05T23:02:29.742Z,94.01
2022-08-05T23:05:01.843Z,93.74
2022-08-05T23:07:45.035Z,94.22
2022-08-05T23:10:19.724Z,95.01
2022-08-05T23:12:55.051Z,95.24
2022-08-05T23:15:29.917Z,95.28
2022-08-05T23:18:11.862Z,95.48
2022-08-05T23:20:46.085Z,95.52
2022-08-05T23:23:15.861Z,95.58
2022-08-05T23:25:51.215Z,95.95
2022-08-05T23:28:29.243Z,96.14
2022-08-05T23:31:15.772Z,96.01
2022-08-05T23:34:03.828Z,96.25
2022-08-05T23:36:39.866Z,96.63
2022-08-05T23:39:31.942Z,96.54
2022-08-05T23:42:04.506Z,96.88
2022-08-05T23:44:38.897Z,96.67
2022-08-05T23:47:14.998Z,96.96
2022-08-05T23:49:48.860Z,96.96
2022-08-05T23:52:28.571Z,96.87
2022-08-05T23:55:00.832Z,96.87
2022-08-05T23:57:31.306Z,96.79
